createdAt,value
2018-10-21T00:01:16.412Z,19.17
2018-10-21T00:03:43.689Z,16.10
2018-10-21T00:06:10.920Z,22.10
2018-10-21T00:08:38.208Z,19.62
2018-10-21T00:11:05.549Z,16.15
2018-10-21T00:13:32.842Z,18.27
2018-10-21T00:16:00.128Z,15.03
2018-10-21T00:18:27.446Z,18.23
2018-10-21T00:20:54.808Z,19.05
2018-10-21T00:23:22.109Z,23.10
2018-10-21T00:25:49.409Z,21.37
2018-10-21T00:28:16.829Z,23.77
2018-10-21T00:30:44.169Z,18.12
2018-10-21T00:33:11.669Z,18.65
2018-10-21T00:35:38.881Z,21.73
2018-10-21T00:38:06.209Z,18.02
2018-10-21T00:40:33.529Z,19.65
2018-10-21T00:43:00.832Z,16.30
2018-10-21T00:45:28.129Z,13.50
2018-10-21T00:47:55.432Z,14.05
2018-10-21T00:50:22.761Z,18.85
2018-10-21T00:52:50.039Z,16.10
2018-10-21T00:55:17.345Z,18.42
2018-10-21T00:57:44.644Z,38.13
2018-10-21T01:00:12.758Z,16.80
2018-10-21T01:02:40.076Z,15.65
2018-10-21T01:05:08.521Z,14.73
2018-10-21T01:07:35.888Z,14.07
2018-10-21T01:10:03.450Z,21.05
2018-10-21T01:12:30.744Z,15.05
2018-10-21T01:14:58.080Z,14.30
2018-10-21T01:17:25.335Z,16.70
2018-10-21T01:19:52.652Z,16.10
2018-10-21T01:22:20.009Z,20.23
2018-10-21T01:24:47.333Z,17.92
2018-10-21T01:27:14.670Z,17.87
2018-10-21T01:29:45.120Z,18.80
2018-10-21T01:32:12.793Z,13.75
2018-10-21T01:34:40.102Z,17.23
2018-10-21T01:37:07.425Z,20.90
2018-10-21T01:39:45.069Z,14.70
2018-10-21T01:42:12.373Z,17.10
2018-10-21T01:44:39.657Z,13.90
2018-10-21T01:47:06.986Z,14.18
2018-10-21T01:49:34.281Z,17.07
2018-10-21T01:52:01.565Z,12.82
2018-10-21T01:54:28.866Z,17.42
2018-10-21T01:56:56.294Z,18.35
2018-10-21T01:59:23.578Z,15.53
2018-10-21T02:01:50.873Z,15.48
2018-10-21T02:04:18.229Z,15.70
2018-10-21T02:06:45.565Z,14.58
2018-10-21T02:09:12.919Z,16.55
2018-10-21T02:11:40.161Z,14.85
2018-10-21T02:14:07.473Z,17.37
2018-10-21T02:16:34.773Z,14.80
2018-10-21T02:19:02.048Z,14.70
2018-10-21T02:21:29.340Z,17.98
2018-10-21T02:23:56.641Z,16.10
2018-10-21T02:26:24.062Z,12.93
2018-10-21T02:28:51.357Z,14.05
2018-10-21T02:31:18.681Z,17.73
2018-10-21T02:33:45.979Z,15.23
2018-10-21T02:36:13.260Z,18.07
2018-10-21T02:38:40.560Z,15.70
2018-10-21T02:41:21.877Z,17.92
2018-10-21T02:43:49.161Z,14.45
2018-10-21T02:46:16.516Z,16.93
2018-10-21T02:48:43.814Z,15.23
2018-10-21T02:51:11.932Z,19.50
2018-10-21T02:53:39.265Z,15.53
2018-10-21T02:56:07.310Z,19.17
2018-10-21T02:58:34.645Z,16.23
2018-10-21T03:01:01.926Z,15.13
2018-10-21T03:03:29.220Z,20.70
2018-10-21T03:05:56.593Z,18.52
2018-10-21T03:08:23.916Z,16.32
2018-10-21T03:10:51.137Z,15.80
2018-10-21T03:13:18.389Z,14.68
2018-10-21T03:15:45.610Z,16.87
2018-10-21T03:18:12.887Z,15.08
2018-10-21T03:20:40.101Z,14.28
2018-10-21T03:23:07.349Z,19.17
2018-10-21T03:25:34.572Z,25.12
2018-10-21T03:28:01.830Z,15.25
2018-10-21T03:30:29.061Z,16.35
2018-10-21T03:32:56.382Z,18.95
2018-10-21T03:35:23.533Z,14.25
2018-10-21T03:37:50.836Z,17.70
2018-10-21T03:40:18.164Z,15.08
2018-10-21T03:42:45.348Z,21.93
2018-10-21T03:45:12.569Z,14.45
2018-10-21T03:47:40.049Z,17.52
2018-10-21T03:50:07.353Z,18.87
2018-10-21T03:52:34.701Z,19.07
2018-10-21T03:55:02.107Z,12.23
2018-10-21T03:57:29.542Z,20.25
2018-10-21T03:59:56.829Z,18.37
2018-10-21T04:02:24.088Z,19.85
2018-10-21T04:04:51.601Z,18.12
2018-10-21T04:07:19.103Z,18.87
2018-10-21T04:09:46.565Z,19.75
2018-10-21T04:12:13.976Z,17.67
2018-10-21T04:14:41.478Z,26.07
2018-10-21T04:17:08.953Z,19.85
2018-10-21T04:19:36.501Z,19.82
2018-10-21T04:22:03.972Z,18.37
2018-10-21T04:24:31.550Z,23.27
2018-10-21T04:26:59.120Z,23.85
2018-10-21T04:29:26.494Z,24.77
2018-10-21T04:31:53.908Z,18.48
2018-10-21T04:34:21.233Z,17.85
2018-10-21T04:36:48.507Z,15.48
2018-10-21T04:39:27.438Z,14.78
2018-10-21T04:41:54.728Z,17.32
2018-10-21T04:44:22.018Z,16.30
2018-10-21T04:46:49.415Z,19.50
2018-10-21T04:49:16.592Z,18.87
2018-10-21T04:51:43.865Z,17.70
2018-10-21T04:54:11.165Z,16.75
2018-10-21T04:56:38.488Z,23.27
2018-10-21T04:59:05.820Z,18.02
2018-10-21T05:01:33.125Z,23.15
2018-10-21T05:04:01.511Z,19.90
2018-10-21T05:06:28.914Z,25.35
2018-10-21T05:08:56.242Z,21.15
2018-10-21T05:11:23.481Z,20.48
2018-10-21T05:13:50.705Z,18.35
2018-10-21T05:16:18.021Z,20.40
2018-10-21T05:18:45.221Z,19.00
2018-10-21T05:21:14.167Z,19.10
2018-10-21T05:23:48.086Z,21.40
2018-10-21T05:26:16.200Z,21.23
2018-10-21T05:28:43.477Z,18.23
2018-10-21T05:31:10.718Z,19.85
2018-10-21T05:33:39.181Z,23.40
2018-10-21T05:36:07.942Z,19.92
2018-10-21T05:38:35.172Z,22.70
2018-10-21T05:41:02.397Z,23.12
2018-10-21T05:43:29.634Z,22.35
2018-10-21T05:45:56.931Z,19.52
2018-10-21T05:48:24.132Z,22.73
2018-10-21T05:50:51.356Z,20.65
2018-10-21T05:53:18.605Z,21.85
2018-10-21T05:55:45.826Z,18.02
2018-10-21T05:58:13.079Z,17.42
2018-10-21T06:00:40.468Z,17.25
2018-10-21T06:03:07.886Z,21.85
2018-10-21T06:05:37.361Z,19.10
2018-10-21T06:08:05.036Z,19.80
2018-10-21T06:10:32.568Z,19.60
2018-10-21T06:13:00.093Z,15.53
2018-10-21T06:15:27.664Z,22.10
2018-10-21T06:17:55.109Z,18.37
2018-10-21T06:20:23.912Z,19.60
2018-10-21T06:22:51.777Z,22.40
2018-10-21T06:25:19.877Z,20.77
2018-10-21T06:27:47.492Z,22.60
2018-10-21T06:30:14.928Z,22.13
2018-10-21T06:32:42.400Z,20.85
2018-10-21T06:35:10.243Z,18.30
2018-10-21T06:37:38.021Z,18.77
2018-10-21T06:40:06.931Z,22.48
2018-10-21T06:42:34.277Z,22.58
2018-10-21T06:45:01.901Z,23.12
2018-10-21T06:47:29.541Z,24.85
2018-10-21T06:49:56.847Z,23.42
2018-10-21T06:52:24.373Z,27.87
2018-10-21T06:54:52.069Z,22.95
2018-10-21T06:57:19.755Z,25.65
2018-10-21T06:59:46.968Z,27.17
2018-10-21T07:02:14.248Z,25.45
2018-10-21T07:04:41.760Z,27.30
2018-10-21T07:07:09.237Z,28.35
2018-10-21T07:09:36.796Z,31.27
2018-10-21T07:12:04.394Z,29.60
2018-10-21T07:14:31.761Z,31.37
2018-10-21T07:16:59.074Z,35.75
2018-10-21T07:19:26.413Z,35.15
2018-10-21T07:21:53.837Z,33.25
2018-10-21T07:24:21.282Z,34.92
2018-10-21T07:26:48.716Z,42.43
2018-10-21T07:29:16.004Z,41.92
2018-10-21T07:31:43.330Z,39.65
2018-10-21T07:34:10.802Z,41.13
2018-10-21T07:36:38.072Z,50.58
2018-10-21T07:39:07.268Z,38.38
2018-10-21T07:41:34.754Z,31.37
2018-10-21T07:44:02.245Z,33.18
2018-10-21T07:46:29.481Z,31.87
2018-10-21T07:48:56.851Z,29.90
2018-10-21T07:51:24.097Z,27.93
2018-10-21T07:53:51.412Z,35.28
2018-10-21T07:56:18.701Z,27.95
2018-10-21T07:58:45.981Z,27.40
2018-10-21T08:01:13.328Z,27.67
2018-10-21T08:03:40.601Z,24.52
2018-10-21T08:06:32.321Z,30.08
2018-10-21T08:08:59.654Z,24.02
2018-10-21T08:11:26.965Z,23.27
2018-10-21T08:13:54.309Z,26.85
2018-10-21T08:16:21.801Z,23.95
2018-10-21T08:18:49.659Z,26.90
2018-10-21T08:21:16.978Z,23.15
2018-10-21T08:23:44.281Z,23.45
2018-10-21T08:26:11.843Z,20.85
2018-10-21T08:28:39.124Z,22.20
2018-10-21T08:31:06.446Z,22.27
2018-10-21T08:33:33.724Z,21.25
2018-10-21T08:36:01.097Z,25.95
2018-10-21T08:38:28.384Z,23.92
2018-10-21T08:40:55.673Z,29.63
2018-10-21T08:43:22.949Z,27.87
2018-10-21T08:45:50.248Z,22.50
2018-10-21T08:48:17.524Z,23.22
2018-10-21T08:50:44.865Z,22.13
2018-10-21T08:53:12.144Z,21.85
2018-10-21T08:55:39.429Z,24.47
2018-10-21T08:58:06.773Z,24.05
2018-10-21T09:00:34.129Z,24.50
2018-10-21T09:03:01.481Z,19.73
2018-10-21T09:05:28.781Z,19.37
2018-10-21T09:07:56.081Z,19.67
2018-10-21T09:10:23.490Z,24.17
2018-10-21T09:12:50.596Z,24.87
2018-10-21T09:15:18.454Z,17.80
2018-10-21T09:17:45.604Z,16.77
2018-10-21T09:20:15.063Z,22.47
2018-10-21T09:22:42.317Z,21.13
2018-10-21T09:25:10.355Z,14.37
2018-10-21T09:27:38.360Z,27.13
2018-10-21T09:30:06.980Z,27.80
2018-10-21T09:32:34.221Z,25.33
2018-10-21T09:35:01.461Z,21.90
2018-10-21T09:37:28.796Z,28.43
2018-10-21T09:39:56.057Z,20.77
2018-10-21T09:42:23.448Z,16.50
2018-10-21T09:44:50.710Z,14.97
2018-10-21T09:47:17.945Z,14.57
2018-10-21T09:49:45.208Z,16.77
2018-10-21T09:52:12.579Z,17.50
2018-10-21T09:54:39.660Z,20.13
2018-10-21T09:57:06.931Z,15.33
2018-10-21T09:59:34.180Z,13.50
2018-10-21T10:03:05.729Z,18.73
2018-10-21T10:05:32.953Z,11.80
2018-10-21T10:08:01.525Z,23.83
2018-10-21T10:10:31.193Z,12.00
2018-10-21T10:12:58.493Z,14.97
2018-10-21T10:15:25.980Z,15.20
2018-10-21T10:17:53.257Z,16.50
2018-10-21T10:20:20.482Z,14.43
2018-10-21T10:22:47.882Z,17.00
2018-10-21T10:25:15.085Z,14.67
2018-10-21T10:27:42.276Z,12.27
2018-10-21T10:30:10.637Z,13.33
2018-10-21T10:32:38.596Z,12.90
2018-10-21T10:35:06.269Z,13.33
2018-10-21T10:37:33.568Z,15.03
2018-10-21T10:40:00.859Z,12.00
2018-10-21T10:42:28.037Z,16.83
2018-10-21T10:44:55.277Z,17.97
2018-10-21T10:47:22.526Z,12.90
2018-10-21T10:49:49.751Z,17.07
2018-10-21T10:52:17.014Z,10.97
2018-10-21T10:54:44.269Z,15.10
2018-10-21T10:57:11.513Z,20.33
2018-10-21T10:59:38.759Z,17.57
2018-10-21T11:02:06.001Z,17.17
2018-10-21T11:04:33.232Z,17.47
2018-10-21T11:07:00.514Z,14.67
2018-10-21T11:09:27.729Z,19.63
2018-10-21T11:11:54.957Z,13.53
2018-10-21T11:14:22.186Z,15.97
2018-10-21T11:16:49.421Z,15.53
2018-10-21T11:19:16.727Z,14.53
2018-10-21T11:21:44.045Z,18.37
2018-10-21T11:24:11.237Z,18.77
2018-10-21T11:26:38.494Z,19.03
2018-10-21T11:29:05.721Z,17.80
2018-10-21T11:31:32.954Z,16.20
2018-10-21T11:34:00.244Z,16.83
2018-10-21T11:36:27.446Z,13.43
2018-10-21T11:38:54.733Z,17.33
2018-10-21T11:41:22.178Z,14.40
2018-10-21T11:43:49.408Z,16.23
2018-10-21T11:46:16.770Z,17.80
2018-10-21T11:48:43.929Z,13.07
2018-10-21T11:51:11.156Z,13.67
2018-10-21T11:53:38.387Z,16.90
2018-10-21T11:56:05.642Z,15.30
2018-10-21T11:58:32.868Z,14.47
2018-10-21T12:01:00.180Z,12.37
2018-10-21T12:03:27.411Z,14.23
2018-10-21T12:05:54.685Z,15.73
2018-10-21T12:08:21.921Z,13.57
2018-10-21T12:10:49.140Z,15.40
2018-10-21T12:13:16.440Z,18.37
2018-10-21T12:15:43.603Z,14.47
2018-10-21T12:18:10.825Z,13.03
2018-10-21T12:20:38.612Z,14.10
2018-10-21T12:23:05.986Z,15.47
2018-10-21T12:25:33.293Z,13.03
2018-10-21T12:28:00.566Z,13.83
2018-10-21T12:30:27.851Z,12.20
2018-10-21T12:32:55.077Z,14.93
2018-10-21T12:35:22.300Z,15.33
2018-10-21T12:37:49.536Z,22.50
2018-10-21T12:40:16.802Z,13.63
2018-10-21T12:42:44.029Z,17.13
2018-10-21T12:45:11.797Z,12.67
2018-10-21T12:47:39.064Z,19.50
2018-10-21T12:50:06.868Z,13.47
2018-10-21T12:52:34.254Z,20.20
2018-10-21T12:55:01.560Z,13.07
2018-10-21T12:57:28.745Z,17.80
2018-10-21T12:59:55.993Z,15.63
2018-10-21T13:02:23.318Z,14.37
2018-10-21T13:04:50.506Z,13.07
2018-10-21T13:07:17.782Z,18.67
2018-10-21T13:09:44.969Z,19.10
2018-10-21T13:12:12.217Z,15.37
2018-10-21T13:14:39.461Z,17.90
2018-10-21T13:17:06.696Z,24.27
2018-10-21T13:19:33.978Z,14.20
2018-10-21T13:22:01.238Z,15.73
2018-10-21T13:24:28.476Z,15.37
2018-10-21T13:26:55.692Z,17.70
2018-10-21T13:29:22.928Z,11.83
2018-10-21T13:31:50.151Z,13.43
2018-10-21T13:34:17.438Z,12.27
2018-10-21T13:36:44.688Z,16.80
2018-10-21T13:39:13.181Z,12.90
2018-10-21T13:41:40.607Z,13.83
2018-10-21T13:44:07.828Z,13.43
2018-10-21T13:46:35.086Z,12.20
2018-10-21T13:49:02.460Z,11.83
2018-10-21T13:51:29.705Z,12.93
2018-10-21T13:53:56.913Z,14.10
2018-10-21T13:56:24.166Z,15.03
2018-10-21T13:58:51.405Z,15.00
2018-10-21T14:01:18.705Z,10.93
2018-10-21T14:03:46.181Z,14.67
2018-10-21T14:06:13.409Z,11.90
2018-10-21T14:08:40.620Z,15.93
2018-10-21T14:11:07.913Z,10.70
2018-10-21T14:13:35.185Z,14.13
2018-10-21T14:16:02.526Z,15.30
2018-10-21T14:18:29.797Z,14.53
2018-10-21T14:20:57.085Z,13.70
2018-10-21T14:23:24.361Z,11.30
2018-10-21T14:25:51.671Z,14.83
2018-10-21T14:28:18.957Z,12.00
2018-10-21T14:30:46.263Z,11.73
2018-10-21T14:33:13.597Z,11.10
2018-10-21T14:35:40.857Z,13.97
2018-10-21T14:38:08.212Z,18.03
2018-10-21T14:40:35.436Z,14.53
2018-10-21T14:43:02.716Z,12.60
2018-10-21T14:45:30.037Z,12.43
2018-10-21T14:47:57.350Z,13.83
2018-10-21T14:50:24.580Z,13.17
2018-10-21T14:52:51.898Z,13.30
2018-10-21T14:55:19.149Z,13.93
2018-10-21T14:57:46.437Z,12.50
2018-10-21T15:00:13.875Z,12.93
2018-10-21T15:02:41.369Z,10.73
2018-10-21T15:05:10.479Z,15.27
2018-10-21T15:07:38.229Z,10.80
2018-10-21T15:10:06.527Z,14.73
2018-10-21T15:12:33.784Z,13.80
2018-10-21T15:15:01.009Z,13.83
2018-10-21T15:17:28.244Z,8.60
2018-10-21T15:19:55.504Z,11.23
2018-10-21T15:22:22.837Z,12.40
2018-10-21T15:24:50.058Z,11.03
2018-10-21T15:27:17.301Z,10.30
2018-10-21T15:29:44.517Z,9.90
2018-10-21T15:32:11.812Z,12.37
2018-10-21T15:34:39.056Z,15.00
2018-10-21T15:37:06.885Z,13.17
2018-10-21T15:39:34.104Z,12.53
2018-10-21T15:42:01.338Z,20.07
2018-10-21T15:44:28.557Z,13.43
2018-10-21T15:46:55.789Z,14.00
2018-10-21T15:49:23.008Z,9.03
2018-10-21T15:51:50.271Z,9.90
2018-10-21T15:54:17.533Z,7.93
2018-10-21T15:56:45.117Z,14.33
2018-10-21T15:59:12.340Z,10.83
2018-10-21T16:01:39.560Z,7.47
2018-10-21T16:04:06.804Z,8.73
2018-10-21T16:06:34.016Z,9.20
2018-10-21T16:09:01.240Z,9.53
2018-10-21T16:11:28.460Z,11.60
2018-10-21T16:13:55.781Z,8.87
2018-10-21T16:16:22.932Z,8.83
2018-10-21T16:18:50.154Z,7.30
2018-10-21T16:21:17.451Z,7.20
2018-10-21T16:23:44.686Z,9.30
2018-10-21T16:26:12.062Z,7.23
2018-10-21T16:28:39.285Z,10.57
2018-10-21T16:31:06.537Z,9.80
2018-10-21T16:33:33.763Z,10.97
2018-10-21T16:36:01.942Z,10.90
2018-10-21T16:38:29.281Z,16.63
2018-10-21T16:40:56.464Z,12.23
2018-10-21T16:43:23.705Z,17.00
2018-10-21T16:45:51.011Z,13.80
2018-10-21T16:48:18.288Z,71.27
2018-10-21T16:50:45.507Z,31.73
2018-10-21T16:53:12.813Z,19.57
2018-10-21T16:55:39.971Z,22.63
2018-10-21T16:58:07.176Z,19.33
2018-10-21T17:00:34.618Z,17.27
2018-10-21T17:03:01.717Z,23.03
2018-10-21T17:05:28.964Z,30.83
2018-10-21T17:07:56.188Z,16.57
2018-10-21T17:10:23.744Z,15.90
2018-10-21T17:12:50.660Z,13.17
2018-10-21T17:15:17.886Z,9.87
2018-10-21T17:17:45.120Z,13.10
2018-10-21T17:20:13.646Z,9.87
2018-10-21T17:22:41.606Z,22.97
2018-10-21T17:25:08.903Z,17.50
2018-10-21T17:27:36.225Z,22.13
2018-10-21T17:30:04.889Z,29.40
2018-10-21T17:32:32.112Z,25.97
2018-10-21T17:34:59.410Z,28.50
2018-10-21T17:37:26.667Z,38.60
2018-10-21T17:39:53.943Z,36.40
2018-10-21T17:42:21.388Z,34.40
2018-10-21T17:44:48.632Z,22.53
2018-10-21T17:47:15.922Z,42.33
2018-10-21T17:49:43.301Z,69.77
2018-10-21T17:52:10.618Z,102.50
2018-10-21T17:54:37.774Z,141.00
2018-10-21T17:57:05.070Z,221.93
2018-10-21T17:59:32.410Z,109.03
2018-10-21T18:01:59.641Z,89.37
2018-10-21T18:04:27.302Z,52.70
2018-10-21T18:06:54.772Z,37.93
2018-10-21T18:09:22.105Z,33.50
2018-10-21T18:11:49.458Z,26.73
2018-10-21T18:14:16.760Z,29.60
2018-10-21T18:16:44.045Z,21.73
2018-10-21T18:19:11.479Z,18.57
2018-10-21T18:21:38.721Z,19.57
2018-10-21T18:24:06.048Z,24.00
2018-10-21T18:26:33.364Z,17.87
2018-10-21T18:29:00.629Z,18.07
2018-10-21T18:31:27.854Z,19.13
2018-10-21T18:33:55.222Z,15.50
2018-10-21T18:36:22.578Z,12.90
2018-10-21T18:38:49.763Z,13.63
2018-10-21T18:41:17.000Z,20.37
2018-10-21T18:43:44.245Z,12.20
2018-10-21T18:46:11.561Z,11.80
2018-10-21T18:48:38.793Z,18.43
2018-10-21T18:51:06.232Z,17.33
2018-10-21T18:53:33.503Z,14.77
2018-10-21T18:56:00.827Z,10.07
2018-10-21T18:58:28.057Z,9.37
2018-10-21T19:00:55.384Z,10.57
2018-10-21T19:03:22.593Z,11.67
2018-10-21T19:05:49.817Z,11.93
2018-10-21T19:08:17.104Z,15.03
2018-10-21T19:10:44.389Z,13.07
2018-10-21T19:13:11.759Z,34.97
2018-10-21T19:15:39.272Z,15.60
2018-10-21T19:18:06.561Z,9.70
2018-10-21T19:20:33.836Z,10.27
2018-10-21T19:23:01.202Z,11.33
2018-10-21T19:25:28.498Z,10.23
2018-10-21T19:27:55.968Z,11.85
2018-10-21T19:30:23.217Z,11.90
2018-10-21T19:32:50.632Z,10.82
2018-10-21T19:35:17.917Z,11.80
2018-10-21T19:37:45.217Z,11.40
2018-10-21T19:40:13.860Z,11.77
2018-10-21T19:42:41.804Z,12.95
2018-10-21T19:45:10.069Z,16.15
2018-10-21T19:47:37.730Z,13.80
2018-10-21T19:50:06.182Z,12.98
2018-10-21T19:52:33.394Z,14.98
2018-10-21T19:55:00.681Z,16.30
2018-10-21T19:57:28.015Z,11.55
2018-10-21T19:59:55.336Z,16.57
2018-10-21T20:02:22.683Z,13.07
2018-10-21T20:04:49.923Z,13.60
2018-10-21T20:07:17.344Z,16.45
2018-10-21T20:09:44.649Z,16.93
2018-10-21T20:12:12.138Z,15.10
2018-10-21T20:14:39.475Z,14.70
2018-10-21T20:17:06.760Z,16.75
2018-10-21T20:19:34.129Z,14.20
2018-10-21T20:22:01.519Z,15.75
2018-10-21T20:24:28.880Z,12.98
2018-10-21T20:26:56.167Z,12.20
2018-10-21T20:29:23.472Z,11.40
2018-10-21T20:31:50.837Z,16.60
2018-10-21T20:34:18.171Z,13.83
2018-10-21T20:36:45.452Z,13.35
2018-10-21T20:39:12.727Z,17.80
2018-10-21T20:41:40.030Z,16.37
2018-10-21T20:44:07.561Z,13.48
2018-10-21T20:46:35.021Z,12.80
2018-10-21T20:49:02.300Z,14.18
2018-10-21T20:51:29.793Z,15.88
2018-10-21T20:53:56.955Z,16.32
2018-10-21T20:56:24.241Z,18.05
2018-10-21T20:58:51.547Z,19.95
2018-10-21T21:01:18.842Z,13.45
2018-10-21T21:03:46.202Z,13.35
2018-10-21T21:06:13.675Z,17.02
2018-10-21T21:08:40.816Z,16.15
2018-10-21T21:11:09.546Z,12.95
2018-10-21T21:13:41.858Z,21.15
2018-10-21T21:16:11.896Z,13.22
2018-10-21T21:18:39.678Z,12.85
2018-10-21T21:21:07.269Z,12.07
2018-10-21T21:23:34.825Z,15.65
2018-10-21T21:26:02.366Z,19.52
2018-10-21T21:28:30.313Z,16.75
2018-10-21T21:30:57.932Z,14.83
2018-10-21T21:33:25.561Z,16.05
2018-10-21T21:35:54.333Z,18.35
2018-10-21T21:38:22.034Z,12.07
2018-10-21T21:40:49.721Z,15.20
2018-10-21T21:43:20.704Z,18.77
2018-10-21T21:45:48.093Z,13.35
2018-10-21T21:48:15.808Z,16.62
2018-10-21T21:50:47.959Z,19.30
2018-10-21T21:53:18.313Z,14.53
2018-10-21T21:55:45.841Z,14.45
2018-10-21T21:58:13.546Z,15.45
2018-10-21T22:00:40.835Z,16.62
2018-10-21T22:03:08.379Z,18.77
2018-10-21T22:05:35.807Z,24.47
2018-10-21T22:08:03.802Z,19.73
2018-10-21T22:10:35.036Z,17.77
2018-10-21T22:13:02.368Z,17.52
2018-10-21T22:15:29.593Z,15.68
2018-10-21T22:17:56.826Z,17.75
2018-10-21T22:20:24.053Z,17.90
2018-10-21T22:22:51.332Z,14.78
2018-10-21T22:25:18.763Z,13.13
2018-10-21T22:27:46.014Z,13.60
2018-10-21T22:30:13.413Z,18.07
2018-10-21T22:32:40.740Z,16.87
2018-10-21T22:35:08.772Z,14.87
2018-10-21T22:37:36.089Z,19.75
2018-10-21T22:40:03.424Z,14.33
2018-10-21T22:42:30.713Z,15.18
2018-10-21T22:44:57.948Z,14.28
2018-10-21T22:47:25.193Z,14.13
2018-10-21T22:49:52.440Z,15.25
2018-10-21T22:52:19.823Z,15.83
2018-10-21T22:54:47.015Z,14.10
2018-10-21T22:57:17.190Z,17.23
2018-10-21T22:59:45.061Z,12.82
2018-10-21T23:02:12.617Z,15.58
2018-10-21T23:04:39.872Z,19.85
2018-10-21T23:07:07.191Z,17.07
2018-10-21T23:09:34.453Z,17.40
2018-10-21T23:12:01.775Z,17.07
2018-10-21T23:14:29.023Z,18.27
2018-10-21T23:16:59.130Z,14.45
2018-10-21T23:19:38.849Z,18.05
2018-10-21T23:22:09.233Z,18.05
2018-10-21T23:24:37.512Z,18.55
2018-10-21T23:27:05.005Z,19.50
2018-10-21T23:29:32.281Z,16.07
2018-10-21T23:32:00.199Z,14.20
2018-10-21T23:34:27.790Z,17.37
2018-10-21T23:36:55.645Z,18.40
2018-10-21T23:39:24.013Z,13.78
2018-10-21T23:41:51.236Z,15.43
2018-10-21T23:44:18.844Z,13.28
2018-10-21T23:46:46.105Z,16.23
2018-10-21T23:49:13.548Z,15.03
2018-10-21T23:51:40.760Z,14.03
2018-10-21T23:54:08.039Z,13.10
2018-10-21T23:56:35.260Z,12.82
2018-10-21T23:59:02.519Z,16.27
